createdAt,value
2023-01-25T00:02:16.241Z,24.70
2023-01-25T00:04:45.053Z,27.00
2023-01-25T00:07:13.150Z,27.40
2023-01-25T00:09:41.599Z,26.70
2023-01-25T00:12:09.830Z,26.30
2023-01-25T00:14:37.936Z,27.20
2023-01-25T00:17:06.486Z,26.60
2023-01-25T00:19:34.728Z,25.30
2023-01-25T00:22:02.796Z,26.20
2023-01-25T00:24:31.491Z,26.30
2023-01-25T00:27:00.106Z,25.60
2023-01-25T00:29:28.209Z,30.50
2023-01-25T00:32:02.489Z,25.70
2023-01-25T00:34:47.406Z,28.80
2023-01-25T00:42:17.156Z,26.40
2023-01-25T00:44:47.553Z,27.60
2023-01-25T00:47:16.381Z,26.20
2023-01-25T00:49:45.494Z,26.40
2023-01-25T00:52:14.722Z,25.00
2023-01-25T00:54:42.849Z,28.30
2023-01-25T00:57:11.043Z,28.70
2023-01-25T00:59:44.472Z,28.90
2023-01-25T01:02:13.915Z,27.00
2023-01-25T01:04:42.342Z,27.30
2023-01-25T01:07:13.190Z,24.90
2023-01-25T01:09:41.495Z,24.90
2023-01-25T01:12:09.939Z,28.80
2023-01-25T01:14:38.429Z,27.60
2023-01-25T01:17:07.069Z,28.50
2023-01-25T01:19:35.436Z,29.20
2023-01-25T01:22:03.729Z,27.90
2023-01-25T01:24:31.861Z,28.70
2023-01-25T01:27:00.102Z,26.60
2023-01-25T01:29:28.349Z,30.00
2023-01-25T01:31:56.560Z,26.00
2023-01-25T01:34:26.535Z,27.90
2023-01-25T01:36:54.966Z,26.30
2023-01-25T01:39:23.271Z,27.10
2023-01-25T01:41:51.639Z,27.00
2023-01-25T01:44:24.445Z,26.60
2023-01-25T01:46:59.226Z,26.60
2023-01-25T01:49:32.829Z,24.90
2023-01-25T01:52:15.170Z,23.30
2023-01-25T01:54:56.987Z,22.60
2023-01-25T01:57:32.721Z,22.50
2023-01-25T02:00:24.164Z,25.00
2023-01-25T02:06:54.729Z,21.50
2023-01-25T02:09:26.165Z,22.00
2023-01-25T02:11:56.999Z,21.30
2023-01-25T02:14:28.282Z,20.30
2023-01-25T02:19:56.731Z,21.30
2023-01-25T02:22:34.761Z,21.10
2023-01-25T02:25:14.482Z,20.40
2023-01-25T02:27:47.140Z,22.20
2023-01-25T02:30:15.426Z,20.00
2023-01-25T02:32:45.386Z,21.70
2023-01-25T02:35:24.433Z,21.30
2023-01-25T02:37:52.714Z,20.20
2023-01-25T02:40:20.848Z,20.10
2023-01-25T02:42:48.979Z,19.40
2023-01-25T02:45:23.920Z,15.40
2023-01-25T02:47:54.021Z,17.40
2023-01-25T02:50:22.468Z,17.50
2023-01-25T02:52:50.493Z,18.80
2023-01-25T02:55:18.933Z,13.00
2023-01-25T02:57:47.301Z,13.30
2023-01-25T03:00:16.491Z,14.10
2023-01-25T03:02:45.638Z,12.50
2023-01-25T03:05:13.874Z,13.40
2023-01-25T03:07:42.077Z,11.80
2023-01-25T03:10:10.780Z,13.20
2023-01-25T03:12:39.176Z,18.20
2023-01-25T03:15:08.502Z,14.20
2023-01-25T03:17:36.908Z,16.60
2023-01-25T03:20:06.291Z,15.20
2023-01-25T03:22:34.983Z,13.40
2023-01-25T03:25:03.163Z,14.20
2023-01-25T03:27:31.479Z,11.60
2023-01-25T03:30:05.360Z,14.40
2023-01-25T03:32:34.918Z,11.20
2023-01-25T03:35:09.660Z,15.00
2023-01-25T03:37:38.100Z,12.80
2023-01-25T03:40:07.043Z,10.20
2023-01-25T03:42:35.532Z,11.70
2023-01-25T03:45:05.668Z,15.70
2023-01-25T03:47:33.739Z,17.80
2023-01-25T03:50:02.149Z,16.50
2023-01-25T03:52:37.360Z,11.80
2023-01-25T03:55:06.649Z,21.70
2023-01-25T04:00:06.254Z,16.10
2023-01-25T04:02:43.616Z,14.20
2023-01-25T04:05:14.309Z,17.20
2023-01-25T04:07:43.161Z,20.20
2023-01-25T04:10:11.751Z,12.20
2023-01-25T04:15:11.236Z,8.60
2023-01-25T04:17:40.631Z,9.80
2023-01-25T04:20:23.665Z,9.70
2023-01-25T04:22:52.164Z,11.40
2023-01-25T04:25:20.606Z,14.40
2023-01-25T04:27:51.679Z,14.60
2023-01-25T04:30:20.118Z,13.30
2023-01-25T04:32:49.889Z,11.00
2023-01-25T04:35:23.019Z,8.20
2023-01-25T04:37:59.250Z,13.20
2023-01-25T04:40:31.817Z,34.00
2023-01-25T04:42:59.928Z,12.30
2023-01-25T04:45:28.196Z,7.80
2023-01-25T04:47:58.713Z,9.40
2023-01-25T04:50:27.591Z,7.90
2023-01-25T04:52:56.288Z,9.30
2023-01-25T04:55:24.958Z,6.60
2023-01-25T04:57:53.898Z,5.40
2023-01-25T05:00:22.146Z,7.70
2023-01-25T05:02:50.892Z,9.10
2023-01-25T05:05:19.365Z,10.70
2023-01-25T05:07:48.031Z,9.20
2023-01-25T05:10:16.539Z,8.50
2023-01-25T05:12:59.178Z,8.70
2023-01-25T05:15:27.385Z,12.10
2023-01-25T05:17:55.470Z,10.70
2023-01-25T05:20:23.835Z,7.30
2023-01-25T05:22:52.020Z,10.80
2023-01-25T05:25:38.769Z,9.50
2023-01-25T05:28:10.073Z,8.00
2023-01-25T05:30:55.095Z,9.10
2023-01-25T05:33:26.693Z,8.00
2023-01-25T05:35:56.210Z,8.60
2023-01-25T05:38:25.626Z,10.20
2023-01-25T05:40:58.388Z,7.20
2023-01-25T05:43:26.610Z,8.20
2023-01-25T05:45:54.816Z,9.30
2023-01-25T05:48:23.078Z,8.50
2023-01-25T05:50:51.191Z,15.10
2023-01-25T05:53:29.015Z,12.40
2023-01-25T05:56:04.968Z,10.90
2023-01-25T05:58:33.579Z,9.10
2023-01-25T06:01:06.851Z,8.80
2023-01-25T06:03:41.402Z,8.00
2023-01-25T06:06:09.720Z,8.00
2023-01-25T06:08:38.026Z,8.40
2023-01-25T06:11:15.666Z,7.70
2023-01-25T06:13:47.155Z,10.80
2023-01-25T06:16:16.750Z,12.60
2023-01-25T06:18:45.105Z,10.20
2023-01-25T06:21:15.834Z,8.50
2023-01-25T06:23:45.253Z,10.50
2023-01-25T06:26:15.266Z,9.20
2023-01-25T06:28:43.580Z,9.30
2023-01-25T06:31:14.174Z,11.50
2023-01-25T06:33:43.220Z,15.70
2023-01-25T06:36:14.093Z,13.20
2023-01-25T06:38:42.452Z,16.00
2023-01-25T06:41:12.365Z,16.80
2023-01-25T06:43:40.592Z,18.00
2023-01-25T06:46:12.278Z,15.20
2023-01-25T06:48:42.961Z,13.70
2023-01-25T06:51:16.330Z,15.50
2023-01-25T06:53:46.325Z,13.20
2023-01-25T06:56:17.883Z,8.40
2023-01-25T06:58:46.851Z,9.40
2023-01-25T07:01:21.271Z,9.40
2023-01-25T07:03:50.860Z,8.60
2023-01-25T07:06:19.549Z,11.70
2023-01-25T07:08:48.378Z,11.90
2023-01-25T07:11:19.084Z,12.30
2023-01-25T07:13:48.489Z,11.60
2023-01-25T07:16:19.314Z,10.00
2023-01-25T07:21:21.672Z,14.30
2023-01-25T07:23:51.313Z,9.20
2023-01-25T07:26:22.350Z,11.60
2023-01-25T07:28:51.416Z,9.30
2023-01-25T07:31:20.563Z,8.00
2023-01-25T07:33:54.423Z,7.60
2023-01-25T07:36:23.047Z,7.00
2023-01-25T07:38:55.822Z,7.80
2023-01-25T07:41:25.132Z,7.90
2023-01-25T07:43:54.052Z,9.30
2023-01-25T07:46:31.783Z,7.90
2023-01-25T07:48:59.943Z,9.60
2023-01-25T07:51:30.144Z,7.90
2023-01-25T07:54:01.522Z,6.90
2023-01-25T07:56:35.051Z,8.70
2023-01-25T07:59:03.670Z,7.60
2023-01-25T08:01:34.607Z,8.30
2023-01-25T08:04:04.957Z,10.30
2023-01-25T08:06:36.283Z,10.40
2023-01-25T08:09:20.217Z,10.40
2023-01-25T08:11:49.511Z,8.30
2023-01-25T08:14:17.934Z,8.10
2023-01-25T08:16:46.056Z,9.30
2023-01-25T08:19:14.307Z,9.60
2023-01-25T08:21:42.704Z,9.80
2023-01-25T08:24:10.863Z,9.50
2023-01-25T08:26:39.073Z,10.10
2023-01-25T08:29:07.527Z,9.80
2023-01-25T08:31:36.101Z,12.10
2023-01-25T08:34:05.274Z,11.10
2023-01-25T08:36:34.151Z,10.40
2023-01-25T08:39:05.732Z,9.70
2023-01-25T08:41:35.343Z,9.00
2023-01-25T08:44:04.696Z,9.00
2023-01-25T08:46:34.042Z,10.10
2023-01-25T08:49:02.909Z,10.00
2023-01-25T08:51:32.689Z,8.40
2023-01-25T08:54:08.481Z,7.90
2023-01-25T08:56:38.425Z,8.50
2023-01-25T08:59:07.450Z,8.90
2023-01-25T09:01:35.660Z,10.10
2023-01-25T09:04:04.187Z,8.70
2023-01-25T09:06:33.812Z,10.40
2023-01-25T09:09:02.500Z,11.20
2023-01-25T09:11:30.965Z,7.40
2023-01-25T09:13:59.043Z,7.30
2023-01-25T09:16:30.813Z,8.00
2023-01-25T09:19:05.147Z,9.10
2023-01-25T09:21:34.471Z,8.80
2023-01-25T09:24:07.537Z,8.50
2023-01-25T09:26:39.826Z,8.20
2023-01-25T09:31:40.672Z,8.20
2023-01-25T09:34:28.180Z,8.60
2023-01-25T09:36:56.673Z,8.00
2023-01-25T09:39:25.695Z,9.30
2023-01-25T09:42:13.964Z,6.70
2023-01-25T09:45:16.564Z,8.50
2023-01-25T09:48:00.283Z,8.40
2023-01-25T09:50:50.190Z,8.30
2023-01-25T09:53:38.574Z,9.70
2023-01-25T09:56:15.957Z,12.60
2023-01-25T09:58:46.852Z,9.80
2023-01-25T10:01:38.631Z,9.00
2023-01-25T10:04:28.905Z,8.30
2023-01-25T10:07:06.738Z,8.80
2023-01-25T10:09:53.302Z,10.10
2023-01-25T10:12:25.934Z,8.00
2023-01-25T10:14:54.621Z,9.20
2023-01-25T10:17:25.730Z,8.00
2023-01-25T10:22:55.983Z,7.90
2023-01-25T10:25:42.966Z,8.70
2023-01-25T10:28:42.555Z,7.70
2023-01-25T10:31:17.844Z,8.80
2023-01-25T10:33:47.958Z,10.90
2023-01-25T10:36:21.753Z,11.20
2023-01-25T10:38:50.203Z,8.80
2023-01-25T10:41:25.359Z,8.90
2023-01-25T10:44:13.653Z,7.00
2023-01-25T10:46:49.267Z,10.10
2023-01-25T10:49:32.570Z,8.20
2023-01-25T10:52:31.220Z,9.30
2023-01-25T10:55:16.080Z,10.30
2023-01-25T10:57:45.162Z,9.00
2023-01-25T11:00:45.528Z,8.90
2023-01-25T11:03:21.365Z,10.10
2023-01-25T11:05:57.597Z,9.80
2023-01-25T11:08:35.157Z,9.20
2023-01-25T11:11:25.720Z,10.90
2023-01-25T11:13:55.570Z,10.10
2023-01-25T11:16:38.977Z,10.60
2023-01-25T11:19:37.603Z,9.10
2023-01-25T11:22:26.503Z,10.40
2023-01-25T11:24:54.834Z,14.30
2023-01-25T11:27:26.252Z,23.50
2023-01-25T11:32:40.666Z,16.00
2023-01-25T11:35:32.131Z,12.30
2023-01-25T11:38:06.412Z,9.90
2023-01-25T11:40:42.109Z,9.60
2023-01-25T11:44:07.413Z,11.70
2023-01-25T11:46:41.402Z,8.70
2023-01-25T11:49:28.398Z,14.30
2023-01-25T11:52:11.486Z,13.00
2023-01-25T11:55:13.032Z,14.20
2023-01-25T12:00:27.858Z,10.20
2023-01-25T12:03:16.713Z,8.80
2023-01-25T12:05:57.692Z,13.70
2023-01-25T12:08:56.433Z,12.00
2023-01-25T12:12:02.191Z,11.00
2023-01-25T12:14:48.402Z,13.70
2023-01-25T12:17:28.229Z,11.10
2023-01-25T12:20:13.542Z,10.40
2023-01-25T12:22:50.878Z,14.20
2023-01-25T12:25:36.774Z,14.20
2023-01-25T12:28:22.489Z,17.10
2023-01-25T12:30:53.095Z,10.80
2023-01-25T12:33:29.468Z,12.80
2023-01-25T12:36:11.946Z,11.80
2023-01-25T12:39:06.429Z,10.30
2023-01-25T12:41:52.146Z,11.70
2023-01-25T12:44:27.642Z,11.80
2023-01-25T12:47:16.059Z,12.30
2023-01-25T12:50:04.766Z,12.70
2023-01-25T12:52:35.437Z,13.30
2023-01-25T12:55:07.689Z,15.40
2023-01-25T12:57:47.657Z,14.40
2023-01-25T13:00:19.730Z,18.90
2023-01-25T13:03:26.263Z,16.40
2023-01-25T13:06:20.484Z,18.10
2023-01-25T13:09:07.966Z,12.10
2023-01-25T13:11:41.676Z,12.90
2023-01-25T13:14:15.688Z,12.20
2023-01-25T13:16:50.160Z,13.30
2023-01-25T13:19:29.204Z,11.50
2023-01-25T13:21:59.412Z,12.60
2023-01-25T13:24:54.579Z,10.20
2023-01-25T13:27:29.113Z,9.60
2023-01-25T13:29:57.360Z,9.90
2023-01-25T13:32:25.527Z,11.10
2023-01-25T13:34:53.650Z,9.70
2023-01-25T13:37:35.159Z,10.40
2023-01-25T13:40:25.682Z,11.50
2023-01-25T13:43:06.315Z,12.40
2023-01-25T13:45:38.370Z,13.30
2023-01-25T13:48:28.993Z,15.80
2023-01-25T13:51:09.372Z,20.40
2023-01-25T13:53:39.969Z,18.90
2023-01-25T13:56:29.486Z,14.00
2023-01-25T13:58:58.132Z,11.50
2023-01-25T14:01:29.458Z,23.70
2023-01-25T14:06:36.216Z,13.30
2023-01-25T14:09:10.918Z,17.10
2023-01-25T14:11:45.940Z,15.30
2023-01-25T14:14:37.846Z,18.40
2023-01-25T14:17:09.381Z,23.60
2023-01-25T14:19:41.140Z,18.90
2023-01-25T14:22:15.589Z,17.10
2023-01-25T14:24:43.726Z,18.80
2023-01-25T14:27:15.159Z,13.10
2023-01-25T14:29:49.008Z,13.60
2023-01-25T14:32:22.457Z,14.80
2023-01-25T14:34:51.067Z,18.20
2023-01-25T14:37:21.430Z,18.60
2023-01-25T14:39:51.451Z,17.60
2023-01-25T14:42:20.322Z,16.40
2023-01-25T14:44:48.905Z,11.10
2023-01-25T14:47:20.080Z,11.10
2023-01-25T14:49:48.317Z,11.20
2023-01-25T14:52:19.852Z,10.80
2023-01-25T14:54:50.692Z,12.40
2023-01-25T14:57:34.439Z,11.60
2023-01-25T15:00:19.827Z,11.80
2023-01-25T15:02:55.206Z,15.60
2023-01-25T15:05:29.394Z,14.20
2023-01-25T15:08:27.760Z,14.30
2023-01-25T15:11:19.068Z,15.60
2023-01-25T15:13:47.787Z,15.70
2023-01-25T15:16:18.536Z,15.20
2023-01-25T15:18:51.500Z,14.50
2023-01-25T15:21:28.064Z,12.50
2023-01-25T15:23:57.903Z,12.80
2023-01-25T15:26:31.447Z,11.60
2023-01-25T15:29:20.137Z,15.50
2023-01-25T15:31:50.464Z,14.40
2023-01-25T15:34:35.127Z,12.90
2023-01-25T15:37:03.481Z,14.80
2023-01-25T15:39:32.728Z,13.40
2023-01-25T15:42:01.187Z,13.90
2023-01-25T15:44:29.490Z,13.10
2023-01-25T15:46:58.214Z,12.10
2023-01-25T15:49:28.497Z,15.60
2023-01-25T15:51:57.416Z,16.20
2023-01-25T15:54:26.549Z,16.60
2023-01-25T15:56:57.851Z,16.30
2023-01-25T15:59:27.181Z,14.80
2023-01-25T16:01:55.446Z,15.70
2023-01-25T16:04:25.327Z,14.80
2023-01-25T16:06:54.948Z,14.90
2023-01-25T16:09:30.013Z,15.30
2023-01-25T16:12:00.044Z,14.10
2023-01-25T16:14:30.964Z,13.60
2023-01-25T16:19:33.351Z,14.20
2023-01-25T16:22:01.571Z,14.70
2023-01-25T16:24:29.592Z,15.60
2023-01-25T16:26:59.492Z,14.30
2023-01-25T16:29:27.879Z,14.80
2023-01-25T16:32:01.297Z,12.10
2023-01-25T16:34:29.363Z,13.50
2023-01-25T16:36:59.992Z,13.10
2023-01-25T16:39:28.483Z,14.00
2023-01-25T16:41:57.736Z,14.20
2023-01-25T16:44:26.448Z,13.90
2023-01-25T16:46:55.397Z,14.00
2023-01-25T16:49:26.751Z,14.80
2023-01-25T16:51:54.926Z,14.70
2023-01-25T16:54:23.688Z,14.20
2023-01-25T16:56:53.461Z,14.00
2023-01-25T16:59:23.585Z,13.90
2023-01-25T17:01:51.762Z,13.30
2023-01-25T17:04:20.073Z,12.70
2023-01-25T17:06:50.096Z,13.10
2023-01-25T17:09:24.201Z,12.80
2023-01-25T17:11:54.617Z,13.80
2023-01-25T17:14:23.550Z,13.60
2023-01-25T17:16:56.102Z,13.00
2023-01-25T17:19:27.111Z,12.90
2023-01-25T17:21:55.232Z,11.60
2023-01-25T17:24:23.326Z,12.60
2023-01-25T17:26:56.235Z,13.10
2023-01-25T17:29:24.627Z,13.30
2023-01-25T17:31:53.273Z,12.90
2023-01-25T17:34:22.116Z,12.10
2023-01-25T17:36:51.801Z,13.10
2023-01-25T17:39:20.925Z,11.80
2023-01-25T17:41:51.255Z,11.50
2023-01-25T17:44:21.581Z,12.30
2023-01-25T17:46:50.605Z,12.10
2023-01-25T17:49:19.653Z,13.30
2023-01-25T17:51:48.098Z,12.60
2023-01-25T17:54:16.354Z,11.10
2023-01-25T17:56:44.943Z,11.60
2023-01-25T17:59:13.022Z,11.20
2023-01-25T18:01:45.076Z,11.10
2023-01-25T18:04:13.556Z,11.00
2023-01-25T18:06:41.677Z,10.30
2023-01-25T18:09:10.035Z,10.20
2023-01-25T18:11:41.550Z,11.00
2023-01-25T18:14:17.260Z,10.80
2023-01-25T18:16:45.696Z,11.00
2023-01-25T18:19:13.902Z,9.90
2023-01-25T18:21:42.433Z,10.30
2023-01-25T18:24:31.640Z,10.70
2023-01-25T18:27:04.810Z,9.80
2023-01-25T18:29:44.690Z,9.10
2023-01-25T18:32:13.717Z,10.20
2023-01-25T18:34:42.081Z,9.80
2023-01-25T18:37:21.047Z,11.20
2023-01-25T18:39:54.206Z,11.00
2023-01-25T18:42:25.086Z,11.30
2023-01-25T18:44:53.327Z,11.20
2023-01-25T18:47:22.529Z,11.10
2023-01-25T18:49:52.239Z,13.30
2023-01-25T18:52:22.673Z,13.20
2023-01-25T18:54:51.135Z,14.00
2023-01-25T18:57:19.937Z,13.70
2023-01-25T18:59:48.138Z,11.70
2023-01-25T19:02:17.695Z,13.00
2023-01-25T19:04:46.272Z,12.80
2023-01-25T19:07:14.746Z,13.30
2023-01-25T19:09:43.850Z,12.70
2023-01-25T19:12:12.272Z,13.50
2023-01-25T19:14:40.612Z,12.10
2023-01-25T19:17:08.912Z,13.00
2023-01-25T19:19:36.936Z,14.10
2023-01-25T19:22:05.600Z,14.70
2023-01-25T19:24:33.673Z,13.70
2023-01-25T19:27:01.747Z,13.10
2023-01-25T19:29:30.093Z,13.50
2023-01-25T19:31:58.098Z,13.60
2023-01-25T19:34:26.392Z,13.20
2023-01-25T19:36:55.844Z,15.70
2023-01-25T19:39:23.949Z,16.40
2023-01-25T19:41:53.502Z,18.30
2023-01-25T19:44:22.069Z,17.00
2023-01-25T19:46:50.184Z,14.90
2023-01-25T19:49:18.469Z,14.40
2023-01-25T19:51:53.158Z,14.30
2023-01-25T19:54:24.671Z,13.50
2023-01-25T19:56:53.305Z,14.00
2023-01-25T19:59:25.567Z,16.90
2023-01-25T20:01:53.966Z,17.30
2023-01-25T20:04:23.765Z,20.50
2023-01-25T20:06:52.720Z,16.50
2023-01-25T20:09:25.070Z,14.80
2023-01-25T20:11:55.812Z,15.10
2023-01-25T20:14:24.184Z,13.50
2023-01-25T20:16:52.833Z,11.70
2023-01-25T20:19:21.461Z,13.70
2023-01-25T20:21:49.603Z,14.00
2023-01-25T20:24:18.269Z,14.80
2023-01-25T20:26:46.852Z,13.40
2023-01-25T20:29:15.673Z,15.50
2023-01-25T20:31:46.113Z,15.40
2023-01-25T20:34:17.664Z,15.10
2023-01-25T20:36:46.622Z,16.00
2023-01-25T20:39:17.517Z,15.90
2023-01-25T20:41:46.253Z,17.90
2023-01-25T20:44:17.203Z,15.80
2023-01-25T20:46:45.417Z,16.30
2023-01-25T20:49:16.492Z,16.30
2023-01-25T20:54:13.970Z,17.40
2023-01-25T20:56:43.277Z,17.60
2023-01-25T20:59:11.438Z,17.50
2023-01-25T21:01:40.170Z,16.20
2023-01-25T21:04:09.750Z,15.10
2023-01-25T21:06:38.799Z,15.50
2023-01-25T21:09:07.148Z,16.30
2023-01-25T21:11:35.388Z,16.90
2023-01-25T21:14:03.459Z,15.30
2023-01-25T21:16:31.684Z,20.20
2023-01-25T21:19:05.802Z,19.70
2023-01-25T21:21:34.871Z,18.50
2023-01-25T21:24:05.445Z,17.60
2023-01-25T21:26:35.955Z,14.80
2023-01-25T21:29:05.599Z,16.50
2023-01-25T21:31:39.395Z,18.50
2023-01-25T21:34:09.264Z,18.80
2023-01-25T21:36:37.857Z,16.90
2023-01-25T21:39:06.564Z,19.70
2023-01-25T21:41:35.154Z,18.90
2023-01-25T21:44:22.230Z,18.40
2023-01-25T21:49:58.085Z,21.00
2023-01-25T21:52:26.210Z,21.50
2023-01-25T21:54:54.274Z,18.10
2023-01-25T21:57:22.363Z,19.00
2023-01-25T21:59:51.958Z,19.50
2023-01-25T22:02:21.954Z,20.60
2023-01-25T22:04:50.126Z,20.80
2023-01-25T22:07:18.274Z,20.90
2023-01-25T22:09:46.385Z,24.10
2023-01-25T22:12:15.203Z,20.90
2023-01-25T22:14:45.466Z,18.90
2023-01-25T22:17:13.632Z,21.80
2023-01-25T22:19:42.004Z,18.40
2023-01-25T22:22:10.510Z,18.30
2023-01-25T22:24:38.593Z,19.80
2023-01-25T22:27:30.483Z,19.50
2023-01-25T22:29:58.758Z,20.60
2023-01-25T22:32:26.770Z,21.00
2023-01-25T22:34:55.326Z,20.10
2023-01-25T22:37:23.548Z,19.40
2023-01-25T22:39:54.280Z,19.30
2023-01-25T22:42:22.524Z,21.10
2023-01-25T22:44:50.831Z,22.40
2023-01-25T22:47:18.889Z,23.40
2023-01-25T22:49:47.177Z,23.40
2023-01-25T22:52:15.274Z,25.10
2023-01-25T22:54:43.335Z,21.60
2023-01-25T22:57:11.395Z,22.90
2023-01-25T22:59:39.393Z,23.40
2023-01-25T23:02:07.454Z,23.20
2023-01-25T23:04:36.205Z,20.80
2023-01-25T23:07:12.698Z,23.40
2023-01-25T23:09:40.993Z,22.50
2023-01-25T23:12:09.210Z,24.20
2023-01-25T23:14:55.223Z,25.00
2023-01-25T23:17:42.487Z,24.60
2023-01-25T23:20:12.588Z,24.80
2023-01-25T23:22:41.826Z,24.60
2023-01-25T23:25:11.547Z,25.20
2023-01-25T23:27:40.357Z,22.50
2023-01-25T23:30:10.070Z,22.70
2023-01-25T23:32:38.750Z,23.30
2023-01-25T23:35:07.585Z,23.80
2023-01-25T23:37:35.965Z,24.10
2023-01-25T23:40:04.673Z,25.40
2023-01-25T23:42:32.819Z,22.00
2023-01-25T23:45:01.379Z,22.80
2023-01-25T23:47:31.124Z,21.70
2023-01-25T23:49:59.628Z,21.90
2023-01-25T23:52:28.229Z,22.80
2023-01-25T23:54:56.343Z,20.40
2023-01-25T23:57:24.477Z,21.70
2023-01-25T23:59:52.690Z,19.80
